sensor_id;sensor_type;location;lat;lon;timestamp;pressure;altitude;pressure_sealevel;temperature;humidity
66090;BME280;53113;45.602;11.904;2022-10-16T00:00:40;101779.74;;;18.47;63.50
66090;BME280;53113;45.602;11.904;2022-10-16T00:03:08;101784.40;;;18.49;63.54
66090;BME280;53113;45.602;11.904;2022-10-16T00:05:41;101785.25;;;18.50;63.53
66090;BME280;53113;45.602;11.904;2022-10-16T00:08:09;101781.00;;;18.49;63.64
66090;BME280;53113;45.602;11.904;2022-10-16T00:10:35;101778.08;;;18.48;63.83
66090;BME280;53113;45.602;11.904;2022-10-16T00:13:01;101780.27;;;18.45;63.82
66090;BME280;53113;45.602;11.904;2022-10-16T00:15:27;101781.58;;;18.43;63.83
66090;BME280;53113;45.602;11.904;2022-10-16T00:17:53;101778.59;;;18.40;63.80
66090;BME280;53113;45.602;11.904;2022-10-16T00:20:19;101783.52;;;18.39;63.85
66090;BME280;53113;45.602;11.904;2022-10-16T00:22:44;101779.24;;;18.41;63.86
66090;BME280;53113;45.602;11.904;2022-10-16T00:25:10;101778.52;;;18.41;63.78
66090;BME280;53113;45.602;11.904;2022-10-16T00:27:36;101780.41;;;18.42;63.86
66090;BME280;53113;45.602;11.904;2022-10-16T00:30:02;101780.23;;;18.42;63.77
66090;BME280;53113;45.602;11.904;2022-10-16T00:32:28;101781.40;;;18.41;63.97
66090;BME280;53113;45.602;11.904;2022-10-16T00:34:56;101782.41;;;18.39;63.97
66090;BME280;53113;45.602;11.904;2022-10-16T00:37:21;101783.20;;;18.39;63.92
66090;BME280;53113;45.602;11.904;2022-10-16T00:39:49;101784.60;;;18.37;64.08
66090;BME280;53113;45.602;11.904;2022-10-16T00:42:16;101783.20;;;18.37;64.05
66090;BME280;53113;45.602;11.904;2022-10-16T00:44:51;101783.55;;;18.39;64.09
66090;BME280;53113;45.602;11.904;2022-10-16T00:47:31;101780.94;;;18.40;64.08
66090;BME280;53113;45.602;11.904;2022-10-16T00:50:04;101785.53;;;18.41;64.08
66090;BME280;53113;45.602;11.904;2022-10-16T00:52:32;101787.70;;;18.40;64.11
66090;BME280;53113;45.602;11.904;2022-10-16T00:54:58;101790.81;;;18.40;64.14
66090;BME280;53113;45.602;11.904;2022-10-16T00:57:25;101792.59;;;18.38;64.36
66090;BME280;53113;45.602;11.904;2022-10-16T00:59:52;101794.11;;;18.35;64.29
66090;BME280;53113;45.602;11.904;2022-10-16T01:02:18;101794.65;;;18.33;64.31
66090;BME280;53113;45.602;11.904;2022-10-16T01:04:50;101793.51;;;18.32;64.30
66090;BME280;53113;45.602;11.904;2022-10-16T01:10:22;101788.23;;;18.33;64.32
66090;BME280;53113;45.602;11.904;2022-10-16T01:13:03;101790.91;;;18.33;64.28
66090;BME280;53113;45.602;11.904;2022-10-16T01:15:37;101790.82;;;18.32;64.34
66090;BME280;53113;45.602;11.904;2022-10-16T01:18:14;101789.03;;;18.30;64.36
66090;BME280;53113;45.602;11.904;2022-10-16T01:20:49;101791.38;;;18.28;64.42
66090;BME280;53113;45.602;11.904;2022-10-16T01:28:28;101793.30;;;18.22;64.53
66090;BME280;53113;45.602;11.904;2022-10-16T01:30:58;101793.52;;;18.24;64.53
66090;BME280;53113;45.602;11.904;2022-10-16T01:33:34;101792.48;;;18.25;64.57
66090;BME280;53113;45.602;11.904;2022-10-16T01:36:09;101791.02;;;18.25;64.62
66090;BME280;53113;45.602;11.904;2022-10-16T01:38:39;101789.89;;;18.24;64.55
66090;BME280;53113;45.602;11.904;2022-10-16T01:41:34;101788.07;;;18.23;64.56
66090;BME280;53113;45.602;11.904;2022-10-16T01:44:10;101786.32;;;18.20;64.66
66090;BME280;53113;45.602;11.904;2022-10-16T01:46:39;101787.27;;;18.17;64.80
66090;BME280;53113;45.602;11.904;2022-10-16T01:49:07;101788.31;;;18.14;64.80
66090;BME280;53113;45.602;11.904;2022-10-16T01:51:36;101788.40;;;18.13;64.85
66090;BME280;53113;45.602;11.904;2022-10-16T01:54:04;101788.36;;;18.14;64.80
66090;BME280;53113;45.602;11.904;2022-10-16T01:56:34;101790.52;;;18.13;64.82
66090;BME280;53113;45.602;11.904;2022-10-16T01:59:07;101791.84;;;18.13;64.85
66090;BME280;53113;45.602;11.904;2022-10-16T02:01:37;101792.05;;;18.10;64.93
66090;BME280;53113;45.602;11.904;2022-10-16T02:04:15;101800.02;;;18.08;65.02
66090;BME280;53113;45.602;11.904;2022-10-16T02:06:43;101798.71;;;18.04;65.04
66090;BME280;53113;45.602;11.904;2022-10-16T02:09:09;101803.29;;;18.01;65.03
66090;BME280;53113;45.602;11.904;2022-10-16T02:11:35;101809.31;;;17.98;65.08
66090;BME280;53113;45.602;11.904;2022-10-16T02:14:05;101811.56;;;17.97;65.17
66090;BME280;53113;45.602;11.904;2022-10-16T02:16:41;101816.75;;;17.97;65.23
66090;BME280;53113;45.602;11.904;2022-10-16T02:19:08;101818.73;;;17.97;65.30
66090;BME280;53113;45.602;11.904;2022-10-16T02:22:05;101821.08;;;17.97;65.36
66090;BME280;53113;45.602;11.904;2022-10-16T02:24:46;101815.52;;;17.95;65.37
66090;BME280;53113;45.602;11.904;2022-10-16T02:32:49;101821.77;;;17.87;65.66
66090;BME280;53113;45.602;11.904;2022-10-16T02:35:18;101826.35;;;17.88;65.70
66090;BME280;53113;45.602;11.904;2022-10-16T02:37:46;101824.23;;;17.90;65.81
66090;BME280;53113;45.602;11.904;2022-10-16T02:40:13;101828.39;;;17.91;65.85
66090;BME280;53113;45.602;11.904;2022-10-16T02:42:40;101830.75;;;17.91;65.89
66090;BME280;53113;45.602;11.904;2022-10-16T02:45:09;101830.17;;;17.89;66.01
66090;BME280;53113;45.602;11.904;2022-10-16T02:47:36;101831.67;;;17.89;66.01
66090;BME280;53113;45.602;11.904;2022-10-16T02:50:03;101835.99;;;17.87;66.13
66090;BME280;53113;45.602;11.904;2022-10-16T02:52:29;101835.00;;;17.85;65.97
66090;BME280;53113;45.602;11.904;2022-10-16T02:54:55;101834.96;;;17.83;66.11
66090;BME280;53113;45.602;11.904;2022-10-16T02:57:21;101836.13;;;17.85;66.12
66090;BME280;53113;45.602;11.904;2022-10-16T02:59:46;101838.54;;;17.88;66.04
66090;BME280;53113;45.602;11.904;2022-10-16T03:02:12;101840.19;;;17.91;66.13
66090;BME280;53113;45.602;11.904;2022-10-16T03:04:38;101844.65;;;17.92;66.05
66090;BME280;53113;45.602;11.904;2022-10-16T03:07:04;101844.45;;;17.92;66.15
66090;BME280;53113;45.602;11.904;2022-10-16T03:09:30;101849.05;;;17.91;66.15
66090;BME280;53113;45.602;11.904;2022-10-16T03:11:55;101846.10;;;17.89;66.14
66090;BME280;53113;45.602;11.904;2022-10-16T03:14:21;101850.39;;;17.88;66.14
66090;BME280;53113;45.602;11.904;2022-10-16T03:16:47;101847.70;;;17.86;66.22
66090;BME280;53113;45.602;11.904;2022-10-16T03:19:13;101841.91;;;17.86;66.26
66090;BME280;53113;45.602;11.904;2022-10-16T03:21:38;101841.32;;;17.89;66.31
66090;BME280;53113;45.602;11.904;2022-10-16T03:24:05;101844.83;;;17.91;66.42
66090;BME280;53113;45.602;11.904;2022-10-16T03:26:30;101841.80;;;17.91;66.30
66090;BME280;53113;45.602;11.904;2022-10-16T03:28:56;101843.21;;;17.92;66.39
66090;BME280;53113;45.602;11.904;2022-10-16T03:31:22;101842.30;;;17.90;66.38
66090;BME280;53113;45.602;11.904;2022-10-16T03:33:48;101846.12;;;17.87;66.54
66090;BME280;53113;45.602;11.904;2022-10-16T03:36:13;101843.59;;;17.85;66.54
66090;BME280;53113;45.602;11.904;2022-10-16T03:38:39;101843.11;;;17.82;66.64
66090;BME280;53113;45.602;11.904;2022-10-16T03:41:05;101843.42;;;17.81;66.69
66090;BME280;53113;45.602;11.904;2022-10-16T03:43:33;101843.23;;;17.81;66.65
66090;BME280;53113;45.602;11.904;2022-10-16T03:45:59;101841.56;;;17.81;66.71
66090;BME280;53113;45.602;11.904;2022-10-16T03:48:24;101839.04;;;17.80;66.69
66090;BME280;53113;45.602;11.904;2022-10-16T03:50:50;101842.04;;;17.78;66.63
66090;BME280;53113;45.602;11.904;2022-10-16T03:53:17;101840.20;;;17.75;66.60
66090;BME280;53113;45.602;11.904;2022-10-16T03:55:43;101844.11;;;17.71;66.58
66090;BME280;53113;45.602;11.904;2022-10-16T03:58:10;101844.34;;;17.66;66.62
66090;BME280;53113;45.602;11.904;2022-10-16T04:00:43;101840.14;;;17.61;66.49
66090;BME280;53113;45.602;11.904;2022-10-16T04:03:10;101838.84;;;17.55;66.56
66090;BME280;53113;45.602;11.904;2022-10-16T04:05:37;101843.86;;;17.51;66.57
66090;BME280;53113;45.602;11.904;2022-10-16T04:08:03;101848.57;;;17.51;66.54
66090;BME280;53113;45.602;11.904;2022-10-16T04:10:29;101854.76;;;17.50;66.47
66090;BME280;53113;45.602;11.904;2022-10-16T04:12:54;101856.49;;;17.46;66.46
66090;BME280;53113;45.602;11.904;2022-10-16T04:15:25;101856.10;;;17.42;66.39
66090;BME280;53113;45.602;11.904;2022-10-16T04:17:51;101857.24;;;17.37;66.41
66090;BME280;53113;45.602;11.904;2022-10-16T04:20:17;101857.18;;;17.32;66.47
66090;BME280;53113;45.602;11.904;2022-10-16T04:22:44;101855.19;;;17.26;66.46
66090;BME280;53113;45.602;11.904;2022-10-16T04:25:11;101857.16;;;17.19;66.49
66090;BME280;53113;45.602;11.904;2022-10-16T04:27:38;101859.89;;;17.15;66.58
66090;BME280;53113;45.602;11.904;2022-10-16T04:30:05;101863.30;;;17.13;66.50
66090;BME280;53113;45.602;11.904;2022-10-16T04:32:32;101863.79;;;17.11;66.57
66090;BME280;53113;45.602;11.904;2022-10-16T04:34:58;101866.98;;;17.10;66.54
66090;BME280;53113;45.602;11.904;2022-10-16T04:37:24;101873.38;;;17.06;66.60
66090;BME280;53113;45.602;11.904;2022-10-16T04:39:51;101872.30;;;17.02;66.63
66090;BME280;53113;45.602;11.904;2022-10-16T04:42:18;101876.17;;;16.96;66.63
66090;BME280;53113;45.602;11.904;2022-10-16T04:44:44;101877.58;;;16.92;66.58
66090;BME280;53113;45.602;11.904;2022-10-16T04:47:10;101874.59;;;16.87;66.62
66090;BME280;53113;45.602;11.904;2022-10-16T04:49:36;101876.49;;;16.84;66.53
66090;BME280;53113;45.602;11.904;2022-10-16T04:52:02;101879.52;;;16.84;66.48
66090;BME280;53113;45.602;11.904;2022-10-16T04:54:28;101878.73;;;16.83;66.42
66090;BME280;53113;45.602;11.904;2022-10-16T04:56:54;101880.00;;;16.80;66.38
66090;BME280;53113;45.602;11.904;2022-10-16T04:59:20;101881.44;;;16.76;66.37
66090;BME280;53113;45.602;11.904;2022-10-16T05:01:46;101882.30;;;16.72;66.30
66090;BME280;53113;45.602;11.904;2022-10-16T05:04:12;101884.96;;;16.68;66.23
66090;BME280;53113;45.602;11.904;2022-10-16T05:06:38;101888.11;;;16.62;66.30
66090;BME280;53113;45.602;11.904;2022-10-16T05:09:05;101888.42;;;16.56;66.26
66090;BME280;53113;45.602;11.904;2022-10-16T05:11:31;101887.46;;;16.50;66.31
66090;BME280;53113;45.602;11.904;2022-10-16T05:13:57;101887.91;;;16.47;66.33
66090;BME280;53113;45.602;11.904;2022-10-16T05:16:23;101885.39;;;16.45;66.30
66090;BME280;53113;45.602;11.904;2022-10-16T05:18:48;101883.70;;;16.44;66.36
66090;BME280;53113;45.602;11.904;2022-10-16T05:21:15;101885.04;;;16.41;66.38
66090;BME280;53113;45.602;11.904;2022-10-16T05:23:40;101888.33;;;16.38;66.39
66090;BME280;53113;45.602;11.904;2022-10-16T05:26:06;101895.31;;;16.33;66.48
66090;BME280;53113;45.602;11.904;2022-10-16T05:28:32;101892.24;;;16.29;66.48
66090;BME280;53113;45.602;11.904;2022-10-16T05:30:58;101889.04;;;16.25;66.55
66090;BME280;53113;45.602;11.904;2022-10-16T05:33:25;101890.20;;;16.19;66.53
66090;BME280;53113;45.602;11.904;2022-10-16T05:35:51;101895.36;;;16.17;66.64
66090;BME280;53113;45.602;11.904;2022-10-16T05:38:18;101898.68;;;16.16;66.62
66090;BME280;53113;45.602;11.904;2022-10-16T05:40:50;101902.77;;;16.17;66.55
66090;BME280;53113;45.602;11.904;2022-10-16T05:43:17;101903.64;;;16.14;66.48
66090;BME280;53113;45.602;11.904;2022-10-16T05:45:43;101906.76;;;16.11;66.44
66090;BME280;53113;45.602;11.904;2022-10-16T05:48:09;101913.11;;;16.07;66.54
66090;BME280;53113;45.602;11.904;2022-10-16T05:50:35;101917.36;;;16.03;66.57
66090;BME280;53113;45.602;11.904;2022-10-16T05:53:00;101920.04;;;15.99;66.62
66090;BME280;53113;45.602;11.904;2022-10-16T05:55:26;101918.09;;;15.94;66.63
66090;BME280;53113;45.602;11.904;2022-10-16T05:57:54;101926.44;;;15.93;66.74
66090;BME280;53113;45.602;11.904;2022-10-16T06:00:20;101929.71;;;15.94;66.78
66090;BME280;53113;45.602;11.904;2022-10-16T06:02:46;101935.14;;;15.96;66.76
66090;BME280;53113;45.602;11.904;2022-10-16T06:05:12;101937.52;;;15.95;66.94
66090;BME280;53113;45.602;11.904;2022-10-16T06:07:38;101939.56;;;15.94;67.02
66090;BME280;53113;45.602;11.904;2022-10-16T06:10:04;101942.88;;;15.92;67.01
66090;BME280;53113;45.602;11.904;2022-10-16T06:12:30;101945.31;;;15.91;67.08
66090;BME280;53113;45.602;11.904;2022-10-16T06:14:56;101944.00;;;15.90;67.11
66090;BME280;53113;45.602;11.904;2022-10-16T06:17:22;101943.95;;;15.88;67.18
66090;BME280;53113;45.602;11.904;2022-10-16T06:19:47;101949.65;;;15.88;67.25
66090;BME280;53113;45.602;11.904;2022-10-16T06:22:13;101953.79;;;15.92;67.33
66090;BME280;53113;45.602;11.904;2022-10-16T06:24:39;101959.15;;;15.97;67.38
66090;BME280;53113;45.602;11.904;2022-10-16T06:27:05;101962.66;;;16.02;67.44
66090;BME280;53113;45.602;11.904;2022-10-16T06:29:31;101963.95;;;16.06;67.54
66090;BME280;53113;45.602;11.904;2022-10-16T06:31:56;101967.58;;;16.10;67.66
66090;BME280;53113;45.602;11.904;2022-10-16T06:34:22;101971.58;;;16.13;67.65
66090;BME280;53113;45.602;11.904;2022-10-16T06:36:48;101975.68;;;16.18;67.66
66090;BME280;53113;45.602;11.904;2022-10-16T06:39:14;101979.09;;;16.25;67.76
66090;BME280;53113;45.602;11.904;2022-10-16T06:41:39;101979.91;;;16.35;67.90
66090;BME280;53113;45.602;11.904;2022-10-16T06:44:06;101982.80;;;16.45;67.86
66090;BME280;53113;45.602;11.904;2022-10-16T06:46:33;101987.90;;;16.55;67.97
66090;BME280;53113;45.602;11.904;2022-10-16T06:48:59;101993.84;;;16.66;68.11
66090;BME280;53113;45.602;11.904;2022-10-16T06:51:26;101997.83;;;16.76;68.12
66090;BME280;53113;45.602;11.904;2022-10-16T06:53:53;101996.89;;;16.86;68.16
66090;BME280;53113;45.602;11.904;2022-10-16T06:56:25;102006.38;;;16.97;68.18
66090;BME280;53113;45.602;11.904;2022-10-16T06:58:52;102009.21;;;17.08;68.18
66090;BME280;53113;45.602;11.904;2022-10-16T07:01:20;102008.59;;;17.19;68.07
66090;BME280;53113;45.602;11.904;2022-10-16T07:03:47;102017.98;;;17.35;67.96
66090;BME280;53113;45.602;11.904;2022-10-16T07:06:15;102018.42;;;17.49;67.84
66090;BME280;53113;45.602;11.904;2022-10-16T07:08:43;102023.42;;;17.62;67.69
66090;BME280;53113;45.602;11.904;2022-10-16T07:11:11;102027.36;;;17.74;67.64
66090;BME280;53113;45.602;11.904;2022-10-16T07:13:39;102030.13;;;17.87;67.50
66090;BME280;53113;45.602;11.904;2022-10-16T07:16:12;102029.13;;;17.98;67.50
66090;BME280;53113;45.602;11.904;2022-10-16T07:18:39;102033.45;;;18.10;67.35
66090;BME280;53113;45.602;11.904;2022-10-16T07:23:34;102035.05;;;18.33;66.90
66090;BME280;53113;45.602;11.904;2022-10-16T07:26:00;102038.27;;;18.43;66.77
66090;BME280;53113;45.602;11.904;2022-10-16T07:28:26;102040.97;;;18.55;66.47
66090;BME280;53113;45.602;11.904;2022-10-16T07:30:52;102045.41;;;18.70;66.23
66090;BME280;53113;45.602;11.904;2022-10-16T07:33:18;102045.40;;;18.84;65.99
66090;BME280;53113;45.602;11.904;2022-10-16T07:35:51;102048.30;;;18.98;65.61
66090;BME280;53113;45.602;11.904;2022-10-16T07:38:18;102050.17;;;19.09;65.39
66090;BME280;53113;45.602;11.904;2022-10-16T07:40:43;102055.11;;;19.18;64.99
66090;BME280;53113;45.602;11.904;2022-10-16T07:43:09;102059.08;;;19.23;64.61
66090;BME280;53113;45.602;11.904;2022-10-16T07:45:36;102063.25;;;19.27;64.36
66090;BME280;53113;45.602;11.904;2022-10-16T07:48:02;102067.64;;;19.30;64.21
66090;BME280;53113;45.602;11.904;2022-10-16T07:50:28;102068.77;;;19.31;64.16
66090;BME280;53113;45.602;11.904;2022-10-16T07:52:54;102073.55;;;19.34;64.15
66090;BME280;53113;45.602;11.904;2022-10-16T07:55:20;102075.11;;;19.37;64.08
66090;BME280;53113;45.602;11.904;2022-10-16T07:57:45;102076.34;;;19.41;64.08
66090;BME280;53113;45.602;11.904;2022-10-16T08:00:12;102079.56;;;19.45;63.99
66090;BME280;53113;45.602;11.904;2022-10-16T08:02:40;102081.23;;;19.50;64.07
66090;BME280;53113;45.602;11.904;2022-10-16T08:05:06;102083.27;;;19.57;64.02
66090;BME280;53113;45.602;11.904;2022-10-16T08:07:32;102080.48;;;19.66;64.05
66090;BME280;53113;45.602;11.904;2022-10-16T08:09:58;102080.98;;;19.80;64.00
66090;BME280;53113;45.602;11.904;2022-10-16T08:12:25;102081.98;;;19.98;64.04
66090;BME280;53113;45.602;11.904;2022-10-16T08:14:51;102085.61;;;20.20;64.16
66090;BME280;53113;45.602;11.904;2022-10-16T08:17:17;102086.94;;;20.42;63.89
66090;BME280;53113;45.602;11.904;2022-10-16T08:19:46;102089.13;;;20.65;63.70
66090;BME280;53113;45.602;11.904;2022-10-16T08:22:13;102084.98;;;20.87;63.38
66090;BME280;53113;45.602;11.904;2022-10-16T08:24:40;102078.81;;;21.09;62.78
66090;BME280;53113;45.602;11.904;2022-10-16T08:27:06;102081.08;;;21.32;62.52
66090;BME280;53113;45.602;11.904;2022-10-16T08:29:34;102085.16;;;21.52;61.91
66090;BME280;53113;45.602;11.904;2022-10-16T08:32:00;102086.27;;;21.72;61.63
66090;BME280;53113;45.602;11.904;2022-10-16T08:34:26;102087.21;;;21.94;61.33
66090;BME280;53113;45.602;11.904;2022-10-16T08:36:55;102089.64;;;22.18;60.87
66090;BME280;53113;45.602;11.904;2022-10-16T08:39:21;102088.77;;;22.45;60.51
66090;BME280;53113;45.602;11.904;2022-10-16T08:49:38;102101.95;;;23.58;58.18
66090;BME280;53113;45.602;11.904;2022-10-16T08:52:11;102107.36;;;23.85;57.54
66090;BME280;53113;45.602;11.904;2022-10-16T08:54:42;102108.70;;;24.10;57.16
66090;BME280;53113;45.602;11.904;2022-10-16T08:57:21;102111.04;;;24.30;56.26
66090;BME280;53113;45.602;11.904;2022-10-16T08:59:48;102110.98;;;24.43;55.45
66090;BME280;53113;45.602;11.904;2022-10-16T09:02:29;102114.19;;;24.51;55.01
66090;BME280;53113;45.602;11.904;2022-10-16T09:05:10;102112.98;;;24.61;54.84
66090;BME280;53113;45.602;11.904;2022-10-16T09:10:57;102111.19;;;24.83;54.22
66090;BME280;53113;45.602;11.904;2022-10-16T09:16:18;102109.09;;;25.23;53.74
66090;BME280;53113;45.602;11.904;2022-10-16T09:21:28;102108.88;;;25.58;52.69
66090;BME280;53113;45.602;11.904;2022-10-16T09:24:08;102109.36;;;25.70;52.10
66090;BME280;53113;45.602;11.904;2022-10-16T09:26:36;102111.34;;;25.82;51.81
66090;BME280;53113;45.602;11.904;2022-10-16T09:29:03;102108.85;;;25.95;51.53
66090;BME280;53113;45.602;11.904;2022-10-16T09:31:29;102113.02;;;26.12;51.49
66090;BME280;53113;45.602;11.904;2022-10-16T09:33:58;102106.80;;;26.30;51.17
66090;BME280;53113;45.602;11.904;2022-10-16T09:36:27;102106.55;;;26.49;50.46
66090;BME280;53113;45.602;11.904;2022-10-16T09:39:06;102109.34;;;26.68;50.25
66090;BME280;53113;45.602;11.904;2022-10-16T09:41:35;102110.32;;;26.88;49.88
66090;BME280;53113;45.602;11.904;2022-10-16T09:44:04;102110.11;;;27.07;49.58
66090;BME280;53113;45.602;11.904;2022-10-16T09:46:34;102108.67;;;27.24;49.19
66090;BME280;53113;45.602;11.904;2022-10-16T09:49:04;102110.91;;;27.42;49.07
66090;BME280;53113;45.602;11.904;2022-10-16T09:51:36;102108.75;;;27.63;48.53
66090;BME280;53113;45.602;11.904;2022-10-16T09:56:35;102107.45;;;28.07;47.70
66090;BME280;53113;45.602;11.904;2022-10-16T09:59:14;102102.54;;;28.25;47.12
66090;BME280;53113;45.602;11.904;2022-10-16T10:01:48;102102.65;;;28.37;46.39
66090;BME280;53113;45.602;11.904;2022-10-16T10:04:20;102100.98;;;28.44;45.83
66090;BME280;53113;45.602;11.904;2022-10-16T10:06:52;102102.15;;;28.48;45.68
66090;BME280;53113;45.602;11.904;2022-10-16T10:09:23;102095.70;;;28.51;45.43
66090;BME280;53113;45.602;11.904;2022-10-16T10:14:49;102091.04;;;28.60;45.31
66090;BME280;53113;45.602;11.904;2022-10-16T10:17:20;102086.86;;;28.67;45.30
66090;BME280;53113;45.602;11.904;2022-10-16T10:30:18;102082.38;;;29.19;43.89
66090;BME280;53113;45.602;11.904;2022-10-16T10:38:31;102086.14;;;29.26;43.61
66090;BME280;53113;45.602;11.904;2022-10-16T11:05:43;102068.05;;;29.87;41.99
66090;BME280;53113;45.602;11.904;2022-10-16T11:10:54;102058.33;;;30.07;41.87
66090;BME280;53113;45.602;11.904;2022-10-16T11:14:02;102067.62;;;30.21;41.73
66090;BME280;53113;45.602;11.904;2022-10-16T11:16:37;102062.00;;;30.41;41.61
66090;BME280;53113;45.602;11.904;2022-10-16T11:21:50;102067.13;;;30.78;40.95
66090;BME280;53113;45.602;11.904;2022-10-16T11:24:25;102066.57;;;30.92;40.76
66090;BME280;53113;45.602;11.904;2022-10-16T11:26:56;102069.73;;;31.07;40.13
66090;BME280;53113;45.602;11.904;2022-10-16T11:29:30;102070.53;;;31.20;39.46
66090;BME280;53113;45.602;11.904;2022-10-16T11:32:06;102067.69;;;31.35;39.38
66090;BME280;53113;45.602;11.904;2022-10-16T11:34:48;102064.98;;;31.50;38.91
66090;BME280;53113;45.602;11.904;2022-10-16T11:37:21;102065.63;;;31.63;38.34
66090;BME280;53113;45.602;11.904;2022-10-16T11:39:52;102064.70;;;31.77;38.29
66090;BME280;53113;45.602;11.904;2022-10-16T11:42:25;102066.77;;;31.90;38.18
66090;BME280;53113;45.602;11.904;2022-10-16T11:47:36;102068.61;;;32.15;37.44
66090;BME280;53113;45.602;11.904;2022-10-16T11:55:55;102063.93;;;32.39;36.96
66090;BME280;53113;45.602;11.904;2022-10-16T12:08:34;102067.41;;;32.52;35.92
66090;BME280;53113;45.602;11.904;2022-10-16T12:14:03;102068.48;;;32.52;35.48
66090;BME280;53113;45.602;11.904;2022-10-16T12:16:29;102066.27;;;32.49;35.30
66090;BME280;53113;45.602;11.904;2022-10-16T12:19:11;102063.73;;;32.49;35.52
66090;BME280;53113;45.602;11.904;2022-10-16T12:21:38;102062.86;;;32.50;35.62
66090;BME280;53113;45.602;11.904;2022-10-16T12:24:04;102067.41;;;32.55;35.86
66090;BME280;53113;45.602;11.904;2022-10-16T12:26:38;102063.18;;;32.61;35.71
66090;BME280;53113;45.602;11.904;2022-10-16T12:29:39;102068.52;;;32.71;35.70
66090;BME280;53113;45.602;11.904;2022-10-16T12:34:51;102066.73;;;32.82;35.53
66090;BME280;53113;45.602;11.904;2022-10-16T12:37:29;102070.88;;;32.81;35.44
66090;BME280;53113;45.602;11.904;2022-10-16T12:39:57;102071.15;;;32.79;35.32
66090;BME280;53113;45.602;11.904;2022-10-16T12:42:33;102070.34;;;32.75;35.30
66090;BME280;53113;45.602;11.904;2022-10-16T12:45:00;102066.92;;;32.67;35.13
66090;BME280;53113;45.602;11.904;2022-10-16T12:49:56;102065.95;;;32.40;34.98
66090;BME280;53113;45.602;11.904;2022-10-16T12:52:36;102070.09;;;32.22;34.74
66090;BME280;53113;45.602;11.904;2022-10-16T12:55:04;102069.98;;;32.05;34.79
66090;BME280;53113;45.602;11.904;2022-10-16T12:57:48;102070.70;;;31.91;35.01
66090;BME280;53113;45.602;11.904;2022-10-16T13:00:41;102068.57;;;31.78;35.26
66090;BME280;53113;45.602;11.904;2022-10-16T13:11:48;102067.03;;;31.40;35.76
66090;BME280;53113;45.602;11.904;2022-10-16T13:17:18;102062.38;;;31.28;35.59
66090;BME280;53113;45.602;11.904;2022-10-16T13:22:40;102066.11;;;31.13;35.74
66090;BME280;53113;45.602;11.904;2022-10-16T13:28:03;102070.27;;;30.86;36.05
66090;BME280;53113;45.602;11.904;2022-10-16T13:30:53;102074.90;;;30.74;35.93
66090;BME280;53113;45.602;11.904;2022-10-16T13:33:32;102070.60;;;30.64;36.41
66090;BME280;53113;45.602;11.904;2022-10-16T13:35:59;102078.20;;;30.65;36.76
66090;BME280;53113;45.602;11.904;2022-10-16T13:38:28;102076.21;;;30.73;36.97
66090;BME280;53113;45.602;11.904;2022-10-16T13:43:34;102081.34;;;31.00;36.56
66090;BME280;53113;45.602;11.904;2022-10-16T13:48:38;102081.44;;;31.10;36.05
66090;BME280;53113;45.602;11.904;2022-10-16T13:51:06;102083.39;;;31.10;35.88
66090;BME280;53113;45.602;11.904;2022-10-16T13:53:36;102082.19;;;31.07;35.72
66090;BME280;53113;45.602;11.904;2022-10-16T13:56:09;102083.84;;;31.04;35.84
66090;BME280;53113;45.602;11.904;2022-10-16T13:58:35;102081.36;;;31.02;35.91
66090;BME280;53113;45.602;11.904;2022-10-16T14:01:03;102085.79;;;31.03;35.88
66090;BME280;53113;45.602;11.904;2022-10-16T14:03:33;102091.83;;;31.05;35.88
66090;BME280;53113;45.602;11.904;2022-10-16T14:06:03;102090.61;;;31.09;36.03
66090;BME280;53113;45.602;11.904;2022-10-16T14:08:30;102093.89;;;31.16;35.76
66090;BME280;53113;45.602;11.904;2022-10-16T14:10:59;102094.41;;;31.22;35.87
66090;BME280;53113;45.602;11.904;2022-10-16T14:13:39;102092.14;;;31.31;35.73
66090;BME280;53113;45.602;11.904;2022-10-16T14:16:11;102093.20;;;31.40;35.73
66090;BME280;53113;45.602;11.904;2022-10-16T14:18:45;102090.36;;;31.49;35.74
66090;BME280;53113;45.602;11.904;2022-10-16T14:21:14;102090.72;;;31.58;35.85
66090;BME280;53113;45.602;11.904;2022-10-16T14:23:43;102088.61;;;31.67;35.90
66090;BME280;53113;45.602;11.904;2022-10-16T14:28:36;102092.70;;;31.78;35.40
66090;BME280;53113;45.602;11.904;2022-10-16T14:31:27;102094.20;;;31.79;35.23
66090;BME280;53113;45.602;11.904;2022-10-16T14:33:53;102097.05;;;31.79;35.22
66090;BME280;53113;45.602;11.904;2022-10-16T14:36:19;102088.96;;;31.77;35.05
66090;BME280;53113;45.602;11.904;2022-10-16T14:39:06;102091.38;;;31.71;34.56
66090;BME280;53113;45.602;11.904;2022-10-16T14:41:47;102092.11;;;31.64;34.88
66090;BME280;53113;45.602;11.904;2022-10-16T14:44:13;102090.63;;;31.57;34.94
66090;BME280;53113;45.602;11.904;2022-10-16T14:46:43;102089.09;;;31.50;34.96
66090;BME280;53113;45.602;11.904;2022-10-16T14:51:37;102084.96;;;31.26;34.76
66090;BME280;53113;45.602;11.904;2022-10-16T14:54:04;102085.73;;;31.12;34.97
66090;BME280;53113;45.602;11.904;2022-10-16T14:56:35;102083.67;;;30.96;35.14
66090;BME280;53113;45.602;11.904;2022-10-16T14:59:09;102085.14;;;30.78;35.22
66090;BME280;53113;45.602;11.904;2022-10-16T15:01:39;102086.70;;;30.58;35.62
66090;BME280;53113;45.602;11.904;2022-10-16T15:04:08;102083.14;;;30.35;35.91
66090;BME280;53113;45.602;11.904;2022-10-16T15:06:34;102086.38;;;30.13;36.10
66090;BME280;53113;45.602;11.904;2022-10-16T15:09:00;102088.73;;;29.93;36.39